createdAt,value
2019-04-01T00:00:35.571Z,3.80
2019-04-01T00:01:35.546Z,5.90
2019-04-01T00:02:35.551Z,4.30
2019-04-01T00:03:35.524Z,3.70
2019-04-01T00:04:35.510Z,4.20
2019-04-01T00:05:35.518Z,4.00
2019-04-01T00:06:35.491Z,5.40
2019-04-01T00:07:35.488Z,4.50
2019-04-01T00:08:35.469Z,5.30
2019-04-01T00:09:35.516Z,5.20
2019-04-01T00:10:35.467Z,5.60
2019-04-01T00:11:35.462Z,5.00
2019-04-01T00:12:35.430Z,3.10
2019-04-01T00:13:35.426Z,3.40
2019-04-01T00:14:35.401Z,3.10
2019-04-01T00:15:35.410Z,4.00
2019-04-01T00:16:35.389Z,4.00
2019-04-01T00:17:35.385Z,3.70
2019-04-01T00:18:35.367Z,4.00
2019-04-01T00:19:35.360Z,3.60
2019-04-01T00:20:35.376Z,5.50
2019-04-01T00:21:35.329Z,3.50
2019-04-01T00:22:35.362Z,5.20
2019-04-01T00:23:35.316Z,5.50
2019-04-01T00:24:35.306Z,4.80
2019-04-01T00:25:35.299Z,6.40
2019-04-01T00:26:35.306Z,4.80
2019-04-01T00:27:35.278Z,4.40
2019-04-01T00:28:35.259Z,5.00
2019-04-01T00:29:35.250Z,4.90
2019-04-01T00:30:35.246Z,5.50
2019-04-01T00:31:35.263Z,5.00
2019-04-01T00:32:35.219Z,4.70
2019-04-01T00:33:35.202Z,6.20
2019-04-01T00:34:35.188Z,5.80
2019-04-01T00:35:35.176Z,5.10
2019-04-01T00:36:35.209Z,4.90
2019-04-01T00:37:35.164Z,4.20
2019-04-01T00:38:35.158Z,4.90
2019-04-01T00:39:35.146Z,4.70
2019-04-01T00:40:35.124Z,5.60
2019-04-01T00:41:35.120Z,4.60
2019-04-01T00:42:35.126Z,4.60
2019-04-01T00:43:35.106Z,3.00
2019-04-01T00:44:35.110Z,5.00
2019-04-01T00:45:35.079Z,4.80
2019-04-01T00:46:35.064Z,5.60
2019-04-01T00:47:35.093Z,6.40
2019-04-01T00:48:35.056Z,7.60
2019-04-01T00:49:35.048Z,5.60
2019-04-01T00:50:35.026Z,5.30
2019-04-01T00:51:35.021Z,7.70
2019-04-01T00:52:35.005Z,6.60
2019-04-01T00:53:35.013Z,5.70
2019-04-01T00:54:35.008Z,5.90
2019-04-01T00:55:34.977Z,7.00
2019-04-01T00:56:34.972Z,6.30
2019-04-01T00:57:34.963Z,8.20
2019-04-01T00:58:34.971Z,6.20
2019-04-01T00:59:34.940Z,5.30
2019-04-01T01:00:34.936Z,7.00
2019-04-01T01:01:34.921Z,6.00
2019-04-01T01:02:34.933Z,6.40
2019-04-01T01:03:34.905Z,6.10
2019-04-01T01:04:34.882Z,7.00
2019-04-01T01:05:34.899Z,5.90
2019-04-01T01:06:34.867Z,6.60
2019-04-01T01:07:34.852Z,5.20
2019-04-01T01:08:34.883Z,7.40
2019-04-01T01:09:34.840Z,5.50
2019-04-01T01:10:34.830Z,6.20
2019-04-01T01:11:34.838Z,7.30
2019-04-01T01:12:34.816Z,6.70
2019-04-01T01:13:34.801Z,6.20
2019-04-01T01:14:34.815Z,8.60
2019-04-01T01:15:34.772Z,4.90
2019-04-01T01:16:34.783Z,7.80
2019-04-01T01:17:34.762Z,6.20
2019-04-01T01:18:34.750Z,5.00
2019-04-01T01:19:34.757Z,5.40
2019-04-01T01:20:34.721Z,8.00
2019-04-01T01:21:34.713Z,4.80
2019-04-01T01:22:34.709Z,6.00
2019-04-01T01:23:34.692Z,5.50
2019-04-01T01:24:34.678Z,6.20
2019-04-01T01:25:34.690Z,5.90
2019-04-01T01:26:34.663Z,5.10
2019-04-01T01:27:34.651Z,4.80
2019-04-01T01:28:34.655Z,5.80
2019-04-01T01:29:34.705Z,6.00
2019-04-01T01:30:34.639Z,5.50
2019-04-01T01:31:34.617Z,8.20
2019-04-01T01:32:34.590Z,5.90
2019-04-01T01:33:34.584Z,6.30
2019-04-01T01:34:34.585Z,6.80
2019-04-01T01:35:34.589Z,5.20
2019-04-01T01:36:34.567Z,6.80
2019-04-01T01:37:34.544Z,4.90
2019-04-01T01:38:34.529Z,5.90
2019-04-01T01:39:34.525Z,8.50
2019-04-01T01:40:34.545Z,5.40
2019-04-01T01:41:34.510Z,8.00
2019-04-01T01:42:34.506Z,6.00
2019-04-01T01:43:34.514Z,4.90
2019-04-01T01:44:34.471Z,6.60
2019-04-01T01:45:34.465Z,7.00
2019-04-01T01:46:34.478Z,6.10
2019-04-01T01:47:34.446Z,7.90
2019-04-01T01:48:34.448Z,5.70
2019-04-01T01:49:34.435Z,7.20
2019-04-01T01:50:34.447Z,6.10
2019-04-01T01:51:34.400Z,8.10
2019-04-01T01:52:34.391Z,6.30
2019-04-01T01:53:34.384Z,6.10
2019-04-01T01:54:34.373Z,6.50
2019-04-01T01:55:34.368Z,6.50
2019-04-01T01:56:34.370Z,6.10
2019-04-01T01:57:34.327Z,6.50
2019-04-01T01:58:34.319Z,6.20
2019-04-01T01:59:34.318Z,7.50
2019-04-01T02:00:34.308Z,7.70
2019-04-01T02:01:34.300Z,8.50
2019-04-01T02:02:34.308Z,6.50
2019-04-01T02:03:34.284Z,5.40
2019-04-01T02:04:34.284Z,6.60
2019-04-01T02:05:34.250Z,5.00
2019-04-01T02:06:34.266Z,5.70
2019-04-01T02:07:34.261Z,6.60
2019-04-01T02:08:34.224Z,9.00
2019-04-01T02:09:34.216Z,6.20
2019-04-01T02:10:34.198Z,6.10
2019-04-01T02:11:34.198Z,5.60
2019-04-01T02:12:34.214Z,8.90
2019-04-01T02:13:34.183Z,7.80
2019-04-01T02:14:34.164Z,6.30
2019-04-01T02:15:34.167Z,6.40
2019-04-01T02:16:34.138Z,4.80
2019-04-01T02:17:34.134Z,6.60
2019-04-01T02:18:34.140Z,9.00
2019-04-01T02:19:34.108Z,5.90
2019-04-01T02:20:34.113Z,8.00
2019-04-01T02:21:34.099Z,7.40
2019-04-01T02:22:34.075Z,5.70
2019-04-01T02:23:34.101Z,7.90
2019-04-01T02:24:34.079Z,6.30
2019-04-01T02:25:34.061Z,6.20
2019-04-01T02:26:34.044Z,5.80
2019-04-01T02:27:34.028Z,6.50
2019-04-01T02:28:34.014Z,6.80
2019-04-01T02:29:34.023Z,9.00
2019-04-01T02:30:34.012Z,7.10
2019-04-01T02:31:33.989Z,9.60
2019-04-01T02:32:33.987Z,5.90
2019-04-01T02:33:33.968Z,6.10
2019-04-01T02:34:33.978Z,8.70
2019-04-01T02:35:33.957Z,6.40
2019-04-01T02:36:33.937Z,6.80
2019-04-01T02:37:33.933Z,6.90
2019-04-01T02:38:33.923Z,5.80
2019-04-01T02:39:33.947Z,7.40
2019-04-01T02:40:33.909Z,6.20
2019-04-01T02:41:33.883Z,6.70
2019-04-01T02:42:33.874Z,6.80
2019-04-01T02:43:33.877Z,8.60
2019-04-01T02:44:33.899Z,4.70
2019-04-01T02:45:33.844Z,7.30
2019-04-01T02:46:33.834Z,6.90
2019-04-01T02:47:33.838Z,6.80
2019-04-01T02:48:33.825Z,7.80
2019-04-01T02:49:33.806Z,7.20
2019-04-01T02:50:33.812Z,9.90
2019-04-01T02:51:33.803Z,7.40
2019-04-01T02:52:33.778Z,7.40
2019-04-01T02:53:33.763Z,7.80
2019-04-01T02:54:33.780Z,7.80
2019-04-01T02:55:33.765Z,7.00
2019-04-01T02:56:33.729Z,5.60
2019-04-01T02:57:33.729Z,7.90
2019-04-01T02:58:33.725Z,9.00
2019-04-01T02:59:33.707Z,7.70
2019-04-01T03:00:33.709Z,8.30
2019-04-01T03:01:33.697Z,7.20
2019-04-01T03:02:33.680Z,6.10
2019-04-01T03:03:33.675Z,7.30
2019-04-01T03:04:33.661Z,6.80
2019-04-01T03:05:33.658Z,7.50
2019-04-01T03:06:33.634Z,8.20
2019-04-01T03:07:33.620Z,9.00
2019-04-01T03:08:33.599Z,5.30
2019-04-01T03:09:33.595Z,7.00
2019-04-01T03:10:33.618Z,6.20
2019-04-01T03:11:33.594Z,4.60
2019-04-01T03:12:33.565Z,8.20
2019-04-01T03:13:33.564Z,9.10
2019-04-01T03:14:33.542Z,11.60
2019-04-01T03:15:33.550Z,8.40
2019-04-01T03:16:33.527Z,8.40
2019-04-01T03:17:33.520Z,7.30
2019-04-01T03:18:33.510Z,9.10
2019-04-01T03:19:33.503Z,7.10
2019-04-01T03:20:33.850Z,7.00
2019-04-01T03:21:33.499Z,8.70
2019-04-01T03:22:33.462Z,7.90
2019-04-01T03:23:33.474Z,7.10
2019-04-01T03:24:33.468Z,10.20
2019-04-01T03:25:33.446Z,10.00
2019-04-01T03:26:33.556Z,6.10
2019-04-01T03:27:33.410Z,9.30
2019-04-01T03:28:33.467Z,10.00
2019-04-01T03:29:33.422Z,8.50
2019-04-01T03:30:33.425Z,8.90
2019-04-01T03:31:33.384Z,5.60
2019-04-01T03:32:33.403Z,9.10
2019-04-01T03:33:33.351Z,8.20
2019-04-01T03:34:33.351Z,7.50
2019-04-01T03:35:33.334Z,7.00
2019-04-01T03:36:33.378Z,7.30
2019-04-01T03:37:33.339Z,7.40
2019-04-01T03:38:33.298Z,9.00
2019-04-01T03:39:33.291Z,8.80
2019-04-01T03:40:33.276Z,7.40
2019-04-01T03:41:33.264Z,10.40
2019-04-01T03:42:33.257Z,8.80
2019-04-01T03:43:33.272Z,9.10
2019-04-01T03:44:33.266Z,8.60
2019-04-01T03:45:33.219Z,8.50
2019-04-01T03:46:33.236Z,7.40
2019-04-01T03:47:33.196Z,9.10
2019-04-01T03:48:33.211Z,7.20
2019-04-01T03:49:33.190Z,8.40
2019-04-01T03:50:33.173Z,6.80
2019-04-01T03:51:33.157Z,9.30
2019-04-01T03:52:33.148Z,9.80
2019-04-01T03:53:33.152Z,7.80
2019-04-01T03:54:33.123Z,7.60
2019-04-01T03:55:33.120Z,6.60
2019-04-01T03:56:33.108Z,8.40
2019-04-01T03:57:33.099Z,10.50
2019-04-01T03:58:33.121Z,7.20
2019-04-01T03:59:33.072Z,9.00
2019-04-01T04:00:33.089Z,8.30
2019-04-01T04:01:33.079Z,7.90
2019-04-01T04:02:33.056Z,8.50
2019-04-01T04:03:33.037Z,8.50
2019-04-01T04:04:33.062Z,6.10
2019-04-01T04:05:33.008Z,7.20
2019-04-01T04:06:33.009Z,7.00
2019-04-01T04:07:32.992Z,9.00
2019-04-01T04:08:32.984Z,8.00
2019-04-01T04:09:33.010Z,9.20
2019-04-01T04:10:32.987Z,10.40
2019-04-01T04:11:32.960Z,8.50
2019-04-01T04:12:32.940Z,7.10
2019-04-01T04:13:32.933Z,8.00
2019-04-01T04:14:32.968Z,7.60
2019-04-01T04:15:32.916Z,7.70
2019-04-01T04:16:32.896Z,8.30
2019-04-01T04:17:32.885Z,8.50
2019-04-01T04:18:32.877Z,7.70
2019-04-01T04:19:32.874Z,9.70
2019-04-01T04:20:32.886Z,9.70
2019-04-01T04:21:32.860Z,9.30
2019-04-01T04:22:32.855Z,8.40
2019-04-01T04:23:32.836Z,9.80
2019-04-01T04:24:32.843Z,8.70
2019-04-01T04:25:32.831Z,9.50
2019-04-01T04:26:32.837Z,10.20
2019-04-01T04:27:32.789Z,8.20
2019-04-01T04:28:32.789Z,8.50
2019-04-01T04:29:32.770Z,9.70
2019-04-01T04:30:32.757Z,10.40
2019-04-01T04:31:32.765Z,8.70
2019-04-01T04:32:32.755Z,8.60
2019-04-01T04:33:32.727Z,10.00
2019-04-01T04:34:32.727Z,11.30
2019-04-01T04:35:32.704Z,9.50
2019-04-01T04:36:32.721Z,12.10
2019-04-01T04:37:32.691Z,13.40
2019-04-01T04:38:32.677Z,9.10
2019-04-01T04:39:32.668Z,10.90
2019-04-01T04:40:32.644Z,7.40
2019-04-01T04:41:32.655Z,9.00
2019-04-01T04:42:32.649Z,9.80
2019-04-01T04:43:32.625Z,9.10
2019-04-01T04:44:32.615Z,9.00
2019-04-01T04:45:32.606Z,8.70
2019-04-01T04:46:32.587Z,8.10
2019-04-01T04:47:32.601Z,9.40
2019-04-01T04:48:32.570Z,9.90
2019-04-01T04:49:32.571Z,10.10
2019-04-01T04:50:32.550Z,10.00
2019-04-01T04:51:32.539Z,9.10
2019-04-01T04:52:32.543Z,10.00
2019-04-01T04:53:32.532Z,9.80
2019-04-01T04:54:32.503Z,9.60
2019-04-01T04:55:32.500Z,7.20
2019-04-01T04:56:32.487Z,9.40
2019-04-01T04:57:32.496Z,7.20
2019-04-01T04:58:32.469Z,6.20
2019-04-01T04:59:32.470Z,9.80
2019-04-01T05:00:32.443Z,8.90
2019-04-01T05:01:32.443Z,8.60
2019-04-01T05:02:32.460Z,10.20
2019-04-01T05:03:32.418Z,7.60
2019-04-01T05:04:32.401Z,7.30
2019-04-01T05:05:32.392Z,7.20
2019-04-01T05:06:32.389Z,9.30
2019-04-01T05:07:32.398Z,8.10
2019-04-01T05:08:32.375Z,6.40
2019-04-01T05:09:32.364Z,10.30
2019-04-01T05:10:32.345Z,10.40
2019-04-01T05:11:32.334Z,9.10
2019-04-01T05:12:32.323Z,7.70
2019-04-01T05:13:32.331Z,8.20
2019-04-01T05:14:32.298Z,11.40
2019-04-01T05:15:32.290Z,7.60
2019-04-01T05:16:32.283Z,8.70
2019-04-01T05:17:32.275Z,9.20
2019-04-01T05:18:32.274Z,8.70
2019-04-01T05:19:32.267Z,9.30
2019-04-01T05:20:32.270Z,7.10
2019-04-01T05:21:32.239Z,10.20
2019-04-01T05:22:32.221Z,10.60
2019-04-01T05:23:32.245Z,8.90
2019-04-01T05:24:32.201Z,9.10
2019-04-01T05:25:32.196Z,12.40
2019-04-01T05:26:32.181Z,10.50
2019-04-01T05:27:32.165Z,10.60
2019-04-01T05:28:32.159Z,8.20
2019-04-01T05:29:32.192Z,10.30
2019-04-01T05:30:32.144Z,7.90
2019-04-01T05:31:32.134Z,9.90
2019-04-01T05:32:32.113Z,9.70
2019-04-01T05:33:32.148Z,10.90
2019-04-01T05:34:32.124Z,10.00
2019-04-01T05:35:32.092Z,11.80
2019-04-01T05:36:32.076Z,11.10
2019-04-01T05:37:32.067Z,8.40
2019-04-01T05:38:32.057Z,10.50
2019-04-01T05:39:32.070Z,15.40
2019-04-01T05:40:32.037Z,10.60
2019-04-01T05:41:32.022Z,12.10
2019-04-01T05:42:32.013Z,10.20
2019-04-01T05:43:32.011Z,8.70
2019-04-01T05:44:32.017Z,8.90
2019-04-01T05:45:31.987Z,10.60
2019-04-01T05:46:31.965Z,12.20
2019-04-01T05:47:31.959Z,10.80
2019-04-01T05:48:31.969Z,10.30
2019-04-01T05:49:31.977Z,10.80
2019-04-01T05:50:31.932Z,10.60
2019-04-01T05:51:31.925Z,9.70
2019-04-01T05:52:31.928Z,8.70
2019-04-01T05:53:31.911Z,7.90
2019-04-01T05:54:31.907Z,9.80
2019-04-01T05:55:31.933Z,8.40
2019-04-01T05:56:31.876Z,9.70
2019-04-01T05:57:31.857Z,13.50
2019-04-01T05:58:31.850Z,10.00
2019-04-01T05:59:31.867Z,11.20
2019-04-01T06:00:32.122Z,9.90
2019-04-01T06:01:31.835Z,10.20
2019-04-01T06:02:31.815Z,11.70
2019-04-01T06:03:31.815Z,9.30
2019-04-01T06:04:31.789Z,13.10
2019-04-01T06:05:32.800Z,9.00
2019-04-01T06:06:31.768Z,22.50
2019-04-01T06:07:31.763Z,10.90
2019-04-01T06:08:31.749Z,10.70
2019-04-01T06:09:31.724Z,8.50
2019-04-01T06:10:31.725Z,8.80
2019-04-01T06:11:31.727Z,8.80
2019-04-01T06:12:31.701Z,10.70
2019-04-01T06:13:31.704Z,9.70
2019-04-01T06:14:31.695Z,9.90
2019-04-01T06:15:31.671Z,10.30
2019-04-01T06:16:31.678Z,14.40
2019-04-01T06:17:31.638Z,8.30
2019-04-01T06:18:31.637Z,9.40
2019-04-01T06:19:31.636Z,10.80
2019-04-01T06:20:31.624Z,9.00
2019-04-01T06:21:31.631Z,8.70
2019-04-01T06:22:31.593Z,8.70
2019-04-01T06:23:31.583Z,7.90
2019-04-01T06:24:31.577Z,9.50
2019-04-01T06:25:31.600Z,9.30
2019-04-01T06:26:31.585Z,9.50
2019-04-01T06:27:32.010Z,7.60
2019-04-01T06:28:31.534Z,8.90
2019-04-01T06:29:31.513Z,9.20
2019-04-01T06:30:31.513Z,9.60
2019-04-01T06:31:31.512Z,8.20
2019-04-01T06:32:31.521Z,8.80
2019-04-01T06:33:31.481Z,8.90
2019-04-01T06:34:31.475Z,8.50
2019-04-01T06:35:31.464Z,10.40
2019-04-01T06:36:31.451Z,8.90
2019-04-01T06:37:31.462Z,9.60
2019-04-01T06:38:31.475Z,8.00
2019-04-01T06:39:31.409Z,11.50
2019-04-01T06:40:31.394Z,8.00
2019-04-01T06:41:31.389Z,8.90
2019-04-01T06:42:31.378Z,7.70
2019-04-01T06:43:31.385Z,7.80
2019-04-01T06:44:31.357Z,7.20
2019-04-01T06:45:31.342Z,9.70
2019-04-01T06:46:31.354Z,7.20
2019-04-01T06:47:31.325Z,7.40
2019-04-01T06:48:31.323Z,9.00
2019-04-01T06:49:31.314Z,7.60
2019-04-01T06:50:31.290Z,7.20
2019-04-01T06:51:31.277Z,6.60
2019-04-01T06:52:31.272Z,7.70
2019-04-01T06:53:31.277Z,6.40
2019-04-01T06:54:31.247Z,11.00
2019-04-01T06:55:31.234Z,7.80
2019-04-01T06:56:31.229Z,6.40
2019-04-01T06:57:31.216Z,6.40
2019-04-01T06:58:31.236Z,7.30
2019-04-01T06:59:31.201Z,5.40
2019-04-01T07:00:31.181Z,5.50
2019-04-01T07:01:31.170Z,5.40
2019-04-01T07:02:31.157Z,7.00
2019-04-01T07:03:31.161Z,7.30
2019-04-01T07:04:31.165Z,5.80
2019-04-01T07:05:31.154Z,6.80
2019-04-01T07:06:31.154Z,5.80
2019-04-01T07:07:31.117Z,6.60
2019-04-01T07:08:31.095Z,5.50
2019-04-01T07:09:31.113Z,5.00
2019-04-01T07:10:31.079Z,7.00
2019-04-01T07:11:31.136Z,6.70
2019-04-01T07:12:31.076Z,6.20
2019-04-01T07:13:31.046Z,7.10
2019-04-01T07:14:31.036Z,7.80
2019-04-01T07:15:31.042Z,7.20
2019-04-01T07:16:31.020Z,6.20
2019-04-01T07:17:31.003Z,8.50
2019-04-01T07:18:30.999Z,7.50
2019-04-01T07:19:30.988Z,6.20
2019-04-01T07:20:30.993Z,7.00
2019-04-01T07:21:30.958Z,6.80
2019-04-01T07:22:30.951Z,5.90
2019-04-01T07:23:30.939Z,5.70
2019-04-01T07:24:30.930Z,5.80
2019-04-01T07:25:33.984Z,5.60
2019-04-01T07:26:30.930Z,5.40
2019-04-01T07:27:30.891Z,4.30
2019-04-01T07:28:30.887Z,6.30
2019-04-01T07:29:30.880Z,6.20
2019-04-01T07:30:30.874Z,4.80
2019-04-01T07:31:30.879Z,5.40
2019-04-01T07:32:30.836Z,6.10
2019-04-01T07:33:30.830Z,4.50
2019-04-01T07:34:30.830Z,5.60
2019-04-01T07:35:30.804Z,3.70
2019-04-01T07:36:30.804Z,5.50
2019-04-01T07:37:30.809Z,5.20
2019-04-01T07:38:30.781Z,4.50
2019-04-01T07:39:30.770Z,4.30
2019-04-01T07:40:30.753Z,6.00
2019-04-01T07:41:30.741Z,5.30
2019-04-01T07:42:30.767Z,5.00
2019-04-01T07:43:30.725Z,6.80
2019-04-01T07:44:30.710Z,5.70
2019-04-01T07:45:30.704Z,4.90
2019-04-01T07:46:30.718Z,5.30
2019-04-01T07:47:30.678Z,5.60
2019-04-01T07:48:30.692Z,5.10
2019-04-01T07:49:30.750Z,5.10
2019-04-01T07:50:30.651Z,7.10
2019-04-01T07:51:30.643Z,4.20
2019-04-01T07:52:30.650Z,4.80
2019-04-01T07:53:30.635Z,5.50
2019-04-01T07:54:30.610Z,4.10
2019-04-01T07:55:30.589Z,7.50
2019-04-01T07:56:30.588Z,7.20
2019-04-01T07:57:32.641Z,4.90
2019-04-01T07:58:30.588Z,4.40
2019-04-01T07:59:30.551Z,5.70
2019-04-01T08:00:30.555Z,4.90
2019-04-01T08:01:30.538Z,4.70
2019-04-01T08:02:30.526Z,5.00
2019-04-01T08:03:30.541Z,4.50
2019-04-01T08:04:30.499Z,4.50
2019-04-01T08:05:30.485Z,5.90
2019-04-01T08:06:30.477Z,3.80
2019-04-01T08:07:30.466Z,4.90
2019-04-01T08:08:30.459Z,5.30
2019-04-01T08:09:30.474Z,6.00
2019-04-01T08:10:30.440Z,5.20
2019-04-01T08:11:30.455Z,4.20
2019-04-01T08:12:30.418Z,5.40
2019-04-01T08:13:30.399Z,4.20
2019-04-01T08:14:30.396Z,5.90
2019-04-01T08:15:30.408Z,4.90
2019-04-01T08:16:30.370Z,5.00
2019-04-01T08:17:30.362Z,5.00
2019-04-01T08:18:33.796Z,3.70
2019-04-01T08:19:30.380Z,4.20
2019-04-01T08:20:30.332Z,3.80
2019-04-01T08:21:30.325Z,3.80
2019-04-01T08:22:30.323Z,4.40
2019-04-01T08:23:30.309Z,4.80
2019-04-01T08:24:30.286Z,4.80
2019-04-01T08:25:30.290Z,4.10
2019-04-01T08:26:30.262Z,4.90
2019-04-01T08:27:30.254Z,5.30
2019-04-01T08:28:30.250Z,5.80
2019-04-01T08:29:30.890Z,4.30
2019-04-01T08:30:30.240Z,4.00
2019-04-01T08:31:30.210Z,4.10
2019-04-01T08:32:30.206Z,3.60
2019-04-01T08:33:30.196Z,3.30
2019-04-01T08:34:30.190Z,3.50
2019-04-01T08:35:30.197Z,3.40
2019-04-01T08:36:30.158Z,3.90
2019-04-01T08:37:30.163Z,4.60
2019-04-01T08:38:30.142Z,4.80
2019-04-01T08:39:30.151Z,3.50
2019-04-01T08:40:30.141Z,3.60
2019-04-01T08:41:30.141Z,4.20
2019-04-01T08:42:30.106Z,4.00
2019-04-01T08:43:30.093Z,4.00
2019-04-01T08:44:30.079Z,3.40
2019-04-01T08:45:30.071Z,4.40
2019-04-01T08:46:30.092Z,3.40
2019-04-01T08:47:30.055Z,5.90
2019-04-01T08:48:30.040Z,3.10
2019-04-01T08:49:30.027Z,3.80
2019-04-01T08:50:30.102Z,5.10
2019-04-01T08:51:30.008Z,3.10
2019-04-01T08:52:30.024Z,2.60
2019-04-01T08:53:29.993Z,3.20
2019-04-01T08:54:29.979Z,2.60
2019-04-01T08:55:29.972Z,2.90
2019-04-01T08:56:29.985Z,4.90
2019-04-01T08:57:29.946Z,4.70
2019-04-01T08:58:29.951Z,5.00
2019-04-01T08:59:29.923Z,4.10
2019-04-01T09:00:29.919Z,2.20
2019-04-01T09:01:35.514Z,4.60
2019-04-01T09:02:30.918Z,2.50
2019-04-01T09:03:29.902Z,2.40
2019-04-01T09:04:29.891Z,3.00
2019-04-01T09:05:29.868Z,3.90
2019-04-01T09:06:31.468Z,2.70
2019-04-01T09:07:29.860Z,3.10
2019-04-01T09:08:29.858Z,2.90
2019-04-01T09:09:29.822Z,5.70
2019-04-01T09:10:29.806Z,3.40
2019-04-01T09:11:29.796Z,2.20
2019-04-01T09:12:29.798Z,4.00
2019-04-01T09:13:29.785Z,4.40
2019-04-01T09:14:29.789Z,3.00
2019-04-01T09:15:29.761Z,2.90
2019-04-01T09:16:29.810Z,3.90
2019-04-01T09:17:29.769Z,3.70
2019-04-01T09:18:29.815Z,3.90
2019-04-01T09:19:29.762Z,2.50
2019-04-01T09:20:29.716Z,5.60
2019-04-01T09:21:29.699Z,2.80
2019-04-01T09:22:29.692Z,3.60
2019-04-01T09:23:29.831Z,3.60
2019-04-01T09:24:29.692Z,4.20
2019-04-01T09:25:29.660Z,4.30
2019-04-01T09:26:29.650Z,2.60
2019-04-01T09:27:29.644Z,2.70
2019-04-01T09:28:29.654Z,4.50
2019-04-01T09:29:29.628Z,3.40
2019-04-01T09:30:29.600Z,2.70
2019-04-01T09:31:29.588Z,2.70
2019-04-01T09:32:29.585Z,3.30
2019-04-01T09:33:29.582Z,3.60
2019-04-01T09:34:29.715Z,2.50
2019-04-01T09:35:29.577Z,2.40
2019-04-01T09:36:29.550Z,3.50
2019-04-01T09:37:29.534Z,4.40
2019-04-01T09:38:29.540Z,4.20
2019-04-01T09:39:29.509Z,4.20
2019-04-01T09:40:29.512Z,3.80
2019-04-01T09:41:29.492Z,2.70
2019-04-01T09:42:29.484Z,4.40
2019-04-01T09:43:29.462Z,2.30
2019-04-01T09:44:36.609Z,3.20
2019-04-01T09:45:30.455Z,3.00
2019-04-01T09:46:29.436Z,2.60
2019-04-01T09:47:29.428Z,2.60
2019-04-01T09:48:29.412Z,4.00
2019-04-01T09:49:29.399Z,2.80
2019-04-01T09:50:29.436Z,3.70
2019-04-01T09:51:29.387Z,2.10
2019-04-01T09:52:29.368Z,3.00
2019-04-01T09:53:29.358Z,2.80
2019-04-01T09:54:29.351Z,2.80
2019-04-01T09:55:29.338Z,3.60
2019-04-01T09:56:29.352Z,2.60
2019-04-01T09:57:29.325Z,3.20
2019-04-01T09:58:29.314Z,3.30
2019-04-01T09:59:29.304Z,3.20
2019-04-01T10:00:29.317Z,2.20
2019-04-01T10:01:29.278Z,3.40
2019-04-01T10:02:32.224Z,3.40
2019-04-01T10:03:29.256Z,3.00
2019-04-01T10:04:29.252Z,3.30
2019-04-01T10:05:29.243Z,5.50
2019-04-01T10:06:29.252Z,4.50
2019-04-01T10:07:29.272Z,3.00
2019-04-01T10:08:41.594Z,3.40
2019-04-01T10:09:30.294Z,3.30
2019-04-01T10:10:29.196Z,3.60
2019-04-01T10:11:29.200Z,3.10
2019-04-01T10:12:29.174Z,3.40
2019-04-01T10:13:29.166Z,3.50
2019-04-01T10:14:29.155Z,3.40
2019-04-01T10:15:29.164Z,3.40
2019-04-01T10:16:29.134Z,3.20
2019-04-01T10:17:29.146Z,2.30
2019-04-01T10:18:29.115Z,3.30
2019-04-01T10:19:29.104Z,2.20
2019-04-01T10:20:29.096Z,2.30
2019-04-01T10:21:29.129Z,3.00
2019-04-01T10:22:29.089Z,2.90
2019-04-01T10:23:29.068Z,2.10
2019-04-01T10:24:29.044Z,2.70
2019-04-01T10:25:29.038Z,3.80
2019-04-01T10:26:29.024Z,4.90
2019-04-01T10:27:29.038Z,2.70
2019-04-01T10:28:32.053Z,2.50
2019-04-01T10:29:29.020Z,2.40
2019-04-01T10:30:29.028Z,3.20
2019-04-01T10:31:29.010Z,3.30
2019-04-01T10:32:28.992Z,2.00
2019-04-01T10:33:28.955Z,5.00
2019-04-01T10:34:28.965Z,4.20
2019-04-01T10:35:28.936Z,3.40
2019-04-01T10:36:28.932Z,2.60
2019-04-01T10:37:28.921Z,3.00
2019-04-01T10:38:28.907Z,3.00
2019-04-01T10:39:28.912Z,2.40
2019-04-01T10:40:28.892Z,3.60
2019-04-01T10:41:28.891Z,1.80
2019-04-01T10:42:28.895Z,2.40
2019-04-01T10:43:28.882Z,2.70
2019-04-01T10:44:28.841Z,3.60
2019-04-01T10:45:28.832Z,3.20
2019-04-01T10:46:28.827Z,2.60
2019-04-01T10:47:28.833Z,3.20
2019-04-01T10:48:28.856Z,2.40
2019-04-01T10:49:32.009Z,3.10
2019-04-01T10:50:28.797Z,2.80
2019-04-01T10:51:28.791Z,4.30
2019-04-01T10:52:28.781Z,2.50
2019-04-01T10:53:28.806Z,3.00
2019-04-01T10:54:28.803Z,3.50
2019-04-01T10:55:28.830Z,2.30
2019-04-01T10:56:28.775Z,3.10
2019-04-01T10:57:28.741Z,4.70
2019-04-01T10:58:28.745Z,2.90
2019-04-01T10:59:28.729Z,3.90
2019-04-01T11:00:28.717Z,2.20
2019-04-01T11:01:28.817Z,1.90
2019-04-01T11:02:28.752Z,2.10
2019-04-01T11:03:28.692Z,3.30
2019-04-01T11:04:28.692Z,4.10
2019-04-01T11:05:28.719Z,2.70
2019-04-01T11:06:28.666Z,2.50
2019-04-01T11:07:28.639Z,4.10
2019-04-01T11:08:28.649Z,2.80
2019-04-01T11:09:38.235Z,3.90
2019-04-01T11:10:29.592Z,2.80
2019-04-01T11:11:28.577Z,2.10
2019-04-01T11:12:28.605Z,2.20
2019-04-01T11:13:28.571Z,2.30
2019-04-01T11:14:28.558Z,3.80
2019-04-01T11:15:28.541Z,4.40
2019-04-01T11:16:31.540Z,3.60
2019-04-01T11:17:28.519Z,2.90
2019-04-01T11:18:28.507Z,2.50
2019-04-01T11:19:28.497Z,2.20
2019-04-01T11:20:28.495Z,3.40
2019-04-01T11:21:28.506Z,2.30
2019-04-01T11:22:28.506Z,2.70
2019-04-01T11:23:28.466Z,2.50
2019-04-01T11:24:28.454Z,3.20
2019-04-01T11:25:28.437Z,2.80
2019-04-01T11:26:28.435Z,4.70
2019-04-01T11:27:28.431Z,3.40
2019-04-01T11:28:28.436Z,4.40
2019-04-01T11:29:28.405Z,4.80
2019-04-01T11:30:28.394Z,2.90
2019-04-01T11:31:28.480Z,3.00
2019-04-01T11:32:28.424Z,2.60
2019-04-01T11:33:28.406Z,2.60
2019-04-01T11:34:28.378Z,2.50
2019-04-01T11:35:28.371Z,2.70
2019-04-01T11:36:28.346Z,4.50
2019-04-01T11:37:28.351Z,3.90
2019-04-01T11:38:28.364Z,3.00
2019-04-01T11:39:28.317Z,3.50
2019-04-01T11:40:28.378Z,3.40
2019-04-01T11:41:28.349Z,3.10
2019-04-01T11:42:28.289Z,5.00
2019-04-01T11:43:28.308Z,2.50
2019-04-01T11:44:28.295Z,3.00
2019-04-01T11:45:28.276Z,3.60
2019-04-01T11:46:28.266Z,2.90
2019-04-01T11:47:28.246Z,3.00
2019-04-01T11:48:28.247Z,2.30
2019-04-01T11:49:28.573Z,3.50
2019-04-01T11:50:28.235Z,4.40
2019-04-01T11:51:32.990Z,3.20
2019-04-01T11:52:29.238Z,3.00
2019-04-01T11:53:28.180Z,3.70
2019-04-01T11:54:28.437Z,2.40
2019-04-01T11:55:28.158Z,3.00
2019-04-01T11:56:28.150Z,2.00
2019-04-01T11:57:28.133Z,3.00
2019-04-01T11:58:28.144Z,2.70
2019-04-01T11:59:28.122Z,4.60
2019-04-01T12:00:28.554Z,3.20
2019-04-01T12:01:28.129Z,2.50
2019-04-01T12:02:28.087Z,2.20
2019-04-01T12:03:28.082Z,3.10
2019-04-01T12:04:28.073Z,2.30
2019-04-01T12:05:28.079Z,3.20
2019-04-01T12:06:28.051Z,3.10
2019-04-01T12:07:28.043Z,2.90
2019-04-01T12:08:28.027Z,2.30
2019-04-01T12:09:28.166Z,3.00
2019-04-01T12:10:28.033Z,2.30
2019-04-01T12:11:28.017Z,3.40
2019-04-01T12:12:27.995Z,3.90
2019-04-01T12:13:28.857Z,3.40
2019-04-01T12:14:27.968Z,4.60
2019-04-01T12:15:27.987Z,5.10
2019-04-01T12:16:27.956Z,4.90
2019-04-01T12:17:27.949Z,3.70
2019-04-01T12:18:27.939Z,2.90
2019-04-01T12:19:27.927Z,4.20
2019-04-01T12:20:27.911Z,3.40
2019-04-01T12:21:27.931Z,3.40
2019-04-01T12:22:27.890Z,3.20
2019-04-01T12:23:27.883Z,2.80
2019-04-01T12:24:27.882Z,3.80
2019-04-01T12:25:27.874Z,2.60
2019-04-01T12:26:27.859Z,2.00
2019-04-01T12:27:27.875Z,2.70
2019-04-01T12:28:27.832Z,2.90
2019-04-01T12:29:27.823Z,4.30
2019-04-01T12:30:27.818Z,2.90
2019-04-01T12:31:27.812Z,3.90
2019-04-01T12:32:27.826Z,3.30
2019-04-01T12:33:27.783Z,3.50
2019-04-01T12:34:27.774Z,3.40
2019-04-01T12:35:27.761Z,3.80
2019-04-01T12:36:27.759Z,3.30
2019-04-01T12:37:30.061Z,4.00
2019-04-01T12:38:27.764Z,3.40
2019-04-01T12:39:27.741Z,3.50
2019-04-01T12:40:27.714Z,2.00
2019-04-01T12:41:27.710Z,2.80
2019-04-01T12:42:27.696Z,3.20
2019-04-01T12:43:27.711Z,3.20
2019-04-01T12:44:27.686Z,4.00
2019-04-01T12:45:27.671Z,3.40
2019-04-01T12:46:27.656Z,2.80
2019-04-01T12:47:27.652Z,3.20
2019-04-01T12:48:27.665Z,3.40
2019-04-01T12:49:27.631Z,4.10
2019-04-01T12:50:27.621Z,3.00
2019-04-01T12:51:27.633Z,3.20
2019-04-01T12:52:27.594Z,3.70
2019-04-01T12:53:27.588Z,4.80
2019-04-01T12:54:27.575Z,3.40
2019-04-01T12:55:27.583Z,3.20
2019-04-01T12:56:27.562Z,4.50
2019-04-01T12:57:27.553Z,3.80
2019-04-01T12:58:27.553Z,2.80
2019-04-01T12:59:27.531Z,3.80
2019-04-01T13:00:29.342Z,3.90
2019-04-01T13:01:27.503Z,4.10
2019-04-01T13:02:27.521Z,3.90
2019-04-01T13:03:27.505Z,38.80
2019-04-01T13:04:27.479Z,5.10
2019-04-01T13:05:27.465Z,4.70
2019-04-01T13:06:27.457Z,23.70
2019-04-01T13:07:27.470Z,5.00
2019-04-01T13:08:27.454Z,4.30
2019-04-01T13:09:27.430Z,3.70
2019-04-01T13:10:27.420Z,2.90
2019-04-01T13:11:27.409Z,3.60
2019-04-01T13:12:27.726Z,2.90
2019-04-01T13:13:27.385Z,3.50
2019-04-01T13:14:27.377Z,4.70
2019-04-01T13:15:27.364Z,2.80
2019-04-01T13:16:27.364Z,4.10